Startpagina
METAR-TAF:

METAR-TAF

Vliegvelden :

Haines, Alaska, Verenigde Staten

breedte: 59-15N, lengte: 135-31W, hoogte: 5 m

Actueel weer

Dit bericht is 33 minuten geleden gemaakt, om 19:54 UTC
Wind 12 kt uit het westnoordwesten
Temperatuur 5°C
Vochtigheid 33%
Druk 1036 hPa
Zicht: 16.1 km
Onbewolkt

METAR: PAHN 101954Z AUTO 29012KT 10SM CLR 05/M10 A3059 RMK SLP360 T00501100 TSNO $ VIA AUTODIAL

Tijdstip: 12:27 (20:27 UTC)

Verwachting

Dit bericht is 3 uur en het 1 minuten geleden gemaakt, om 17:26 UTC
Verwachting geldig van 10 om 18 UTC tot 11 om 18 UTC
Wind 11 kt uit het westnoordwesten
Zicht: 10 km
Onbewolkt
Van 10 om 2300 UTC
Wind 9 kt uit het zuidzuidwesten
Zicht: 10 km
Onbewolkt
Van 11 om 0400 UTC
Wind 9 kt uit het noordwesten
Zicht: 10 km
Onbewolkt

TAF: PAHN 101726Z 1018/1118 30011KT P6SM SKC FM102300 20009KT P6SM SKC FM110400 31009KT P6SM SKC AMD LTD TO CLD VIS AND WIND

Waarnemingen en weersverwachtingen van meer dan 4000 vliegvelden (METAR en TAF).

De beschikbare stations zijn de gele en rode punten op de kaart.

Ga met uw muis naar het station om de naam te zien.

Klik dan om waarnemingen en weersverwachtingen te zien.

kaart wijzigen: klik op de groene knoppen met een zwart kruis om in te zoomen, op de groene knop met een streepje om uit te zoomen of op de groene pijlen voor aangrenzende kaarten.


METAR-TAF: